Time;durP1;ratioP1;P1;durP2;ratioP2;P2;SDS_P1;SDS_P2;PMS_P1;PMS_P2;Temp;Humidity;BMP_temperature;BMP_pressure;BME280_temperature;BME280_humidity;BME280_pressure;Samples;Min_cycle;Max_cycle;Signal;HPM_P1;HPM_P2
2022/09/27 00:00:59;;;;;;;7.22;6.63;;;;;;;15.79;81.97;93995.00;5117005;28;20195;-69
2022/09/27 00:03:25;;;;;;;7.50;6.88;;;;;;;15.77;81.63;93997.44;5116682;28;20600;-69
2022/09/27 00:06:04;;;;;;;7.20;6.50;;;;;;;15.78;81.99;93993.44;5117240;28;20187;-69
2022/09/27 00:08:31;;;;;;;7.35;6.63;;;;;;;15.78;81.99;93985.09;5115667;28;20191;-69
2022/09/27 00:11:00;;;;;;;7.63;6.95;;;;;;;15.78;82.06;93985.09;5115603;28;20215;-69
2022/09/27 00:13:27;;;;;;;7.75;7.13;;;;;;;15.76;82.01;94006.97;5116524;28;20604;-69
2022/09/27 00:15:56;;;;;;;7.60;6.93;;;;;;;15.78;82.64;94009.34;5116811;28;20180;-69
2022/09/27 00:18:23;;;;;;;8.27;7.47;;;;;;;15.80;83.33;94012.50;5115863;28;20206;-68
2022/09/27 00:20:50;;;;;;;7.82;7.05;;;;;;;15.79;83.33;94031.16;5116718;28;20188;-68
2022/09/27 00:23:19;;;;;;;6.93;6.22;;;;;;;15.77;83.16;94035.56;5116442;28;20198;-68
2022/09/27 00:25:55;;;;;;;6.60;6.10;;;;;;;15.73;82.64;94030.03;5115526;28;20208;-68
2022/09/27 00:28:22;;;;;;;6.43;5.72;;;;;;;15.73;82.17;94009.78;5116259;28;20207;-68
2022/09/27 00:30:49;;;;;;;6.50;6.00;;;;;;;15.74;82.33;94011.38;5115195;28;20558;-68
2022/09/27 00:33:16;;;;;;;6.47;5.80;;;;;;;15.71;82.26;94003.84;5116236;28;20196;-69
2022/09/27 00:35:43;;;;;;;6.53;5.93;;;;;;;15.66;82.54;93987.63;5116226;28;20222;-69
2022/09/27 00:38:10;;;;;;;6.22;5.53;;;;;;;15.66;82.45;93979.28;5115777;28;20195;-68
2022/09/27 00:40:38;;;;;;;6.60;6.00;;;;;;;15.63;81.76;93984.44;5116541;28;20209;-67
2022/09/27 00:43:16;;;;;;;6.43;5.82;;;;;;;15.60;82.04;93985.25;5115309;28;20192;-68
2022/09/27 00:45:46;;;;;;;6.20;5.70;;;;;;;15.61;81.76;93980.47;5115328;28;20204;-68
2022/09/27 00:48:14;;;;;;;5.93;5.30;;;;;;;15.58;82.18;93970.19;5116218;28;20187;-68
2022/09/27 00:50:43;;;;;;;8.25;6.38;;;;;;;15.57;82.30;93976.94;5114945;28;20218;-68
2022/09/27 00:53:12;;;;;;;6.10;5.50;;;;;;;15.57;82.24;93951.94;5115046;28;20271;-67
2022/09/27 00:55:43;;;;;;;6.20;5.55;;;;;;;15.57;81.79;93954.72;5115121;28;20249;-68
2022/09/27 00:58:12;;;;;;;6.80;6.15;;;;;;;15.57;82.40;93974.94;5115133;28;20203;-68
2022/09/27 01:00:44;;;;;;;6.78;6.20;;;;;;;15.57;82.51;93965.81;5115852;28;20195;-67
2022/09/27 01:03:13;;;;;;;6.28;5.78;;;;;;;15.57;82.47;93958.28;5114970;28;20199;-68
2022/09/27 01:05:41;;;;;;;6.63;5.93;;;;;;;15.55;82.55;93977.34;5116298;28;20288;-68
2022/09/27 01:08:08;;;;;;;7.40;6.70;;;;;;;15.52;82.64;93989.28;5115782;28;20285;-68
2022/09/27 01:10:47;;;;;;;6.88;6.18;;;;;;;15.53;83.08;93973.41;5116146;28;20242;-68
2022/09/27 01:13:20;;;;;;;7.80;7.00;;;;;;;15.53;82.66;93962.28;5115909;28;20191;-68
2022/09/27 01:15:51;;;;;;;7.68;6.97;;;;;;;15.50;82.96;93957.56;5115331;28;20200;-68
2022/09/27 01:18:26;;;;;;;7.28;6.65;;;;;;;15.47;82.86;93947.25;5115539;28;20180;-68
2022/09/27 01:21:14;;;;;;;7.65;6.95;;;;;;;15.44;83.09;93960.00;5115684;28;20176;-68
2022/09/27 01:23:54;;;;;;;7.78;6.47;;;;;;;15.43;83.92;93963.97;5115283;28;20192;-67
2022/09/27 01:26:36;;;;;;;7.38;6.68;;;;;;;15.40;83.95;93967.59;5115439;28;20194;-68
2022/09/27 01:29:07;;;;;;;7.10;6.50;;;;;;;15.36;83.57;93970.38;5115587;28;20524;-68
2022/09/27 01:31:40;;;;;;;6.75;6.22;;;;;;;15.34;83.30;93980.31;5114356;28;20270;-68
2022/09/27 01:34:12;;;;;;;6.70;6.20;;;;;;;15.32;82.81;93975.19;5115676;28;20180;-67
2022/09/27 01:36:43;;;;;;;6.70;6.20;;;;;;;15.32;83.50;93968.81;5114337;28;20203;-68
2022/09/27 01:39:22;;;;;;;6.78;6.18;;;;;;;15.33;83.62;93978.75;5115229;28;20234;-68
2022/09/27 01:41:54;;;;;;;7.25;6.60;;;;;;;15.31;84.10;93976.38;5115290;28;20596;-68
2022/09/27 01:44:27;;;;;;;7.13;6.43;;;;;;;15.31;84.39;93970.03;5114883;28;20203;-68
2022/09/27 01:46:58;;;;;;;7.38;6.68;;;;;;;15.29;83.85;93976.00;5115144;28;20188;-68
2022/09/27 01:49:31;;;;;;;7.57;6.93;;;;;;;15.28;83.71;93982.75;5114750;28;20195;-68
2022/09/27 01:52:00;;;;;;;8.73;7.93;;;;;;;15.28;83.85;93965.28;5115792;28;20215;-68
2022/09/27 01:54:31;;;;;;;9.73;8.93;;;;;;;15.27;83.67;93958.16;5115221;28;20180;-68
2022/09/27 01:57:00;;;;;;;12.05;10.88;;;;;;;15.27;83.57;93963.72;5114553;28;20196;-69
2022/09/27 01:59:29;;;;;;;13.38;12.07;;;;;;;15.27;83.66;93949.81;5114645;28;20242;-69
2022/09/27 02:02:01;;;;;;;14.18;12.88;;;;;;;15.26;84.04;93962.16;5114472;28;20202;-69
2022/09/27 02:04:30;;;;;;;16.67;15.07;;;;;;;15.25;84.04;93949.44;5115142;28;20658;-69
2022/09/27 02:07:00;;;;;;;15.27;13.88;;;;;;;15.25;84.11;93957.78;5114368;28;20534;-69
2022/09/27 02:09:30;;;;;;;16.58;14.98;;;;;;;15.24;84.59;93939.53;5115036;28;20180;-69
2022/09/27 02:12:01;;;;;;;16.83;15.25;;;;;;;15.25;84.82;93943.88;5114624;28;20204;-69
2022/09/27 02:14:32;;;;;;;17.50;15.90;;;;;;;15.22;84.83;93941.94;5114620;28;20207;-69
2022/09/27 02:17:07;;;;;;;16.90;15.30;;;;;;;15.23;84.61;93935.19;5114819;28;20203;-68
2022/09/27 02:19:39;;;;;;;13.98;12.70;;;;;;;15.22;84.33;93911.41;5114925;28;20215;-68
2022/09/27 02:22:13;;;;;;;16.00;14.52;;;;;;;15.20;84.78;93920.13;5114759;28;20223;-69
2022/09/27 02:24:42;;;;;;;14.00;12.80;;;;;;;15.21;84.67;93890.34;5114301;28;20223;-69
2022/09/27 02:27:13;;;;;;;11.65;10.55;;;;;;;15.10;85.20;93885.69;5115181;28;20242;-69
2022/09/27 02:29:45;;;;;;;11.52;10.52;;;;;;;15.09;85.36;93891.66;5115457;28;20203;-69
2022/09/27 02:32:13;;;;;;;11.32;10.32;;;;;;;15.11;84.96;93880.94;5114714;28;20212;-69
2022/09/27 02:34:41;;;;;;;11.82;10.82;;;;;;;15.12;85.28;93890.84;5118175;28;20207;-69
2022/09/27 02:37:08;;;;;;;11.55;10.20;;;;;;;15.12;85.68;93886.06;5117780;28;20204;-68
2022/09/27 02:39:35;;;;;;;9.45;8.65;;;;;;;15.12;85.09;93874.19;5118620;28;20187;-66
2022/09/27 02:42:01;;;;;;;8.90;8.10;;;;;;;15.10;85.05;93884.91;5117406;28;20199;-70
2022/09/27 02:44:29;;;;;;;8.52;7.72;;;;;;;15.06;85.28;93898.03;5117857;28;20184;-68
2022/09/27 02:47:20;;;;;;;8.10;7.35;;;;;;;15.07;85.34;93907.94;5118561;28;20256;-68
2022/09/27 02:49:59;;;;;;;7.40;6.80;;;;;;;15.09;85.38;93900.00;5118745;28;20195;-68
2022/09/27 02:52:36;;;;;;;7.57;6.88;;;;;;;15.09;85.53;93900.00;5117460;28;20227;-67
2022/09/27 02:55:10;;;;;;;7.38;6.75;;;;;;;15.09;85.56;93914.66;5118427;28;20179;-67
2022/09/27 02:57:45;;;;;;;7.43;6.72;;;;;;;15.09;85.34;93906.31;5118007;28;20548;-67
2022/09/27 03:00:16;;;;;;;7.65;7.05;;;;;;;15.08;85.82;93904.75;5118333;28;20180;-67
2022/09/27 03:02:51;;;;;;;7.20;6.60;;;;;;;15.09;85.85;93884.13;5117377;28;20195;-67
2022/09/27 03:05:20;;;;;;;7.15;6.55;;;;;;;15.10;86.03;93898.78;5117995;28;20626;-67
2022/09/27 03:07:47;;;;;;;7.82;7.13;;;;;;;15.10;85.74;93862.69;5116927;28;20199;-68
2022/09/27 03:10:17;;;;;;;6.80;6.20;;;;;;;15.10;86.01;93866.25;5117885;28;20188;-68
2022/09/27 03:12:44;;;;;;;7.03;6.43;;;;;;;15.11;85.76;93847.63;5117151;28;20195;-67
2022/09/27 03:15:11;;;;;;;7.32;6.65;;;;;;;15.12;85.81;93841.63;5117912;28;20184;-67
2022/09/27 03:17:38;;;;;;;7.65;6.85;;;;;;;15.12;85.61;93844.41;5118202;28;20188;-67
2022/09/27 03:20:07;;;;;;;7.45;6.80;;;;;;;15.11;85.85;93847.63;5117951;28;20192;-67
2022/09/27 03:22:34;;;;;;;8.23;7.43;;;;;;;15.10;85.59;93837.69;5117578;28;20273;-67
2022/09/27 03:25:01;;;;;;;8.02;7.32;;;;;;;15.11;85.85;93844.84;5117588;28;20265;-67
2022/09/27 03:27:27;;;;;;;8.10;7.28;;;;;;;15.11;85.97;93842.84;5117744;28;20192;-67
2022/09/27 03:29:55;;;;;;;7.72;7.03;;;;;;;15.12;86.06;93838.88;5116752;28;20206;-67
2022/09/27 03:32:22;;;;;;;8.50;7.70;;;;;;;15.13;86.41;93836.88;5117580;28;20219;-67
2022/09/27 03:34:48;;;;;;;7.82;7.13;;;;;;;15.13;86.36;93837.66;5116734;28;20195;-67
2022/09/27 03:37:17;;;;;;;8.40;7.70;;;;;;;15.14;86.34;93844.00;5116724;28;20195;-67
2022/09/27 03:39:44;;;;;;;8.40;7.60;;;;;;;15.12;86.42;93843.63;5116843;28;20204;-67
2022/09/27 03:42:10;;;;;;;8.48;7.78;;;;;;;15.12;86.63;93838.88;5117249;28;20219;-67
2022/09/27 03:44:37;;;;;;;11.63;10.43;;;;;;;15.12;86.64;93840.84;5115581;28;20206;-67
2022/09/27 03:47:04;;;;;;;9.73;8.80;;;;;;;15.11;86.24;93828.19;5116410;28;20199;-68
2022/09/27 03:49:31;;;;;;;8.57;7.75;;;;;;;15.10;86.31;93844.03;5116320;28;20616;-68
2022/09/27 03:51:58;;;;;;;8.93;8.23;;;;;;;15.09;86.67;93853.56;5116513;28;20231;-69
2022/09/27 03:54:26;;;;;;;8.93;8.05;;;;;;;15.12;87.08;93847.19;5116618;28;20198;-69
2022/09/27 03:56:53;;;;;;;8.82;8.05;;;;;;;15.12;87.18;93835.31;5098979;28;20199;-67
2022/09/27 03:59:20;;;;;;;8.73;8.02;;;;;;;15.11;87.02;93833.72;5117211;28;20188;-70
2022/09/27 04:01:46;;;;;;;8.63;7.82;;;;;;;15.12;87.44;93844.41;5117109;28;20180;-68
2022/09/27 04:04:13;;;;;;;8.63;7.93;;;;;;;15.10;86.89;93841.25;5117004;28;20176;-69
2022/09/27 04:06:40;;;;;;;8.80;7.85;;;;;;;15.09;87.28;93836.13;5117198;28;20196;-68
2022/09/27 04:09:07;;;;;;;8.05;7.35;;;;;;;15.10;87.10;93834.91;5116050;28;20208;-69
2022/09/27 04:11:35;;;;;;;8.35;7.65;;;;;;;15.09;86.98;93841.69;5116988;28;20215;-68
2022/09/27 04:14:04;;;;;;;8.50;7.80;;;;;;;15.09;87.00;93838.91;5117015;28;20184;-68
2022/09/27 04:16:31;;;;;;;8.50;7.80;;;;;;;15.07;87.08;93839.31;5115936;28;20249;-68
2022/09/27 04:18:57;;;;;;;8.43;7.72;;;;;;;15.07;86.91;93828.22;5116808;28;20192;-69
2022/09/27 04:21:24;;;;;;;9.05;8.23;;;;;;;15.07;87.43;93819.06;5116716;28;20199;-69
2022/09/27 04:23:51;;;;;;;9.18;8.38;;;;;;;15.08;87.53;93827.00;5115829;28;20631;-69
2022/09/27 04:26:19;;;;;;;9.27;8.48;;;;;;;15.08;87.28;93832.56;5115810;28;20204;-69
2022/09/27 04:28:50;;;;;;;9.60;8.75;;;;;;;15.09;87.59;93833.34;5116531;28;20271;-69
2022/09/27 04:31:18;;;;;;;8.88;8.07;;;;;;;15.08;87.60;93831.78;5115431;28;20277;-69
2022/09/27 04:33:45;;;;;;;9.07;8.30;;;;;;;15.08;87.73;93837.31;5116536;28;20196;-69
2022/09/27 04:36:26;;;;;;;9.23;8.43;;;;;;;15.07;87.79;93839.31;5116088;28;20183;-68
2022/09/27 04:38:53;;;;;;;8.27;7.57;;;;;;;15.07;87.76;93833.78;5115435;28;20196;-68
2022/09/27 04:41:22;;;;;;;8.30;7.50;;;;;;;15.07;87.46;93825.44;5116386;28;20429;-68
2022/09/27 04:43:51;;;;;;;8.57;7.80;;;;;;;15.09;88.07;93841.69;5115586;28;20192;-69
2022/09/27 04:46:19;;;;;;;8.48;7.78;;;;;;;15.11;88.23;93844.84;5115594;28;20202;-68
2022/09/27 04:48:46;;;;;;;8.50;7.70;;;;;;;15.12;88.39;93838.88;5116194;27;20200;-69
2022/09/27 04:51:12;;;;;;;8.55;7.75;;;;;;;15.14;87.97;93844.00;5114824;28;20639;-69
2022/09/27 04:53:39;;;;;;;8.57;7.70;;;;;;;15.15;87.71;93840.81;5115917;28;20168;-69
2022/09/27 04:56:06;;;;;;;9.07;8.27;;;;;;;15.19;87.18;93828.88;5114952;28;20192;-69
2022/09/27 04:58:34;;;;;;;9.23;8.48;;;;;;;15.22;87.07;93828.06;5115791;28;20180;-69
2022/09/27 05:01:03;;;;;;;9.35;8.55;;;;;;;15.23;87.21;93829.63;5115765;28;20179;-71
2022/09/27 05:03:30;;;;;;;9.00;8.20;;;;;;;15.21;87.34;93832.81;5115777;28;20196;-72
2022/09/27 05:05:56;;;;;;;9.52;8.73;;;;;;;15.22;87.28;93817.75;5115261;28;20210;-70
2022/09/27 05:08:23;;;;;;;9.25;8.35;;;;;;;15.22;87.31;93806.63;5115977;28;20199;-69
2022/09/27 05:10:50;;;;;;;8.95;8.15;;;;;;;15.22;87.08;93812.19;5114943;28;20192;-68
2022/09/27 05:13:17;;;;;;;9.23;8.25;;;;;;;15.23;87.33;93812.97;5115643;28;20200;-69
2022/09/27 05:15:44;;;;;;;9.15;8.30;;;;;;;15.24;87.84;93804.22;5115244;28;20215;-69
2022/09/27 05:18:12;;;;;;;7.93;7.07;;;;;;;15.27;87.87;93799.84;5115689;28;20188;-69
2022/09/27 05:20:39;;;;;;;7.78;6.95;;;;;;;15.36;86.31;93805.69;5114942;28;20208;-68
2022/09/27 05:23:06;;;;;;;11.70;10.57;;;;;;;15.39;86.62;93800.06;5114744;28;20195;-68
2022/09/27 05:25:33;;;;;;;10.48;7.55;;;;;;;15.36;86.15;93781.47;5115544;28;20180;-68
2022/09/27 05:28:00;;;;;;;11.27;10.18;;;;;;;15.46;86.03;93793.66;5115823;28;20190;-68
2022/09/27 05:30:27;;;;;;;11.20;10.07;;;;;;;15.45;86.63;93794.06;5115417;28;20219;-68
2022/09/27 05:32:54;;;;;;;7.95;7.20;;;;;;;15.43;85.46;93794.47;5114360;28;20239;-68
2022/09/27 05:35:23;;;;;;;7.80;7.10;;;;;;;15.60;84.44;93801.03;5115757;28;20179;-68
2022/09/27 05:37:53;;;;;;;9.35;8.35;;;;;;;15.79;82.26;93786.50;5115483;28;20188;-68
2022/09/27 05:40:23;;;;;;;9.90;8.77;;;;;;;15.73;83.79;93790.19;5114643;28;20203;-68
2022/09/27 05:42:51;;;;;;;9.00;8.20;;;;;;;15.62;84.09;93807.75;5114729;28;20188;-68
2022/09/27 05:45:19;;;;;;;9.20;8.40;;;;;;;15.54;84.78;93795.16;5114321;28;20192;-68
2022/09/27 05:47:53;;;;;;;9.25;8.45;;;;;;;15.47;85.84;93778.56;5114780;28;20196;-67
2022/09/27 05:50:20;;;;;;;8.57;7.88;;;;;;;15.41;86.25;93803.25;5115574;28;20190;-67
2022/09/27 05:52:48;;;;;;;8.90;8.10;;;;;;;15.39;86.16;93797.28;5114284;28;20216;-67
2022/09/27 05:55:15;;;;;;;8.88;8.00;;;;;;;15.36;85.71;93800.94;5115139;28;20188;-68
2022/09/27 05:57:42;;;;;;;13.65;12.38;;;;;;;15.33;85.82;93823.19;5114699;28;20194;-67
2022/09/27 06:00:10;;;;;;;10.60;9.60;;;;;;;15.31;85.91;93815.25;5114718;28;20204;-68
2022/09/27 06:02:37;;;;;;;10.57;9.63;;;;;;;15.30;86.05;93821.22;5115089;28;20558;-68
2022/09/27 06:05:04;;;;;;;9.80;8.82;;;;;;;15.28;86.06;93815.28;5114999;28;20192;-68
2022/09/27 06:07:31;;;;;;;11.88;10.77;;;;;;;15.25;86.33;93827.22;5116645;28;20200;-67
2022/09/27 06:09:59;;;;;;;10.48;9.48;;;;;;;15.22;86.88;93817.75;5118062;28;20200;-67
2022/09/27 06:12:26;;;;;;;10.60;9.60;;;;;;;15.24;86.92;93814.53;5118111;28;20219;-68
2022/09/27 06:14:53;;;;;;;11.05;10.00;;;;;;;15.23;86.51;93833.19;5118144;28;20180;-68
2022/09/27 06:17:19;;;;;;;10.27;9.35;;;;;;;15.25;86.99;93835.56;5119375;28;20189;-67
2022/09/27 06:19:48;;;;;;;9.48;8.68;;;;;;;15.24;86.91;93834.78;5118943;28;20192;-67
2022/09/27 06:22:15;;;;;;;10.68;9.68;;;;;;;15.26;87.33;93834.38;5118189;28;20184;-67
2022/09/27 06:24:41;;;;;;;10.05;9.15;;;;;;;15.28;87.67;93810.53;5119061;28;20203;-67
2022/09/27 06:27:10;;;;;;;10.57;9.68;;;;;;;15.31;87.41;93820.81;5118045;28;20196;-67
2022/09/27 06:29:37;;;;;;;11.63;10.63;;;;;;;15.32;88.11;93810.47;5118857;28;20264;-67
2022/09/27 06:32:04;;;;;;;30.27;27.88;;;;;;;15.33;87.88;93812.84;5117289;28;20224;-67
2022/09/27 06:34:31;;;;;;;39.05;35.72;;;;;;;15.33;87.79;93828.75;5118793;28;20187;-68
2022/09/27 06:36:58;;;;;;;49.95;45.40;;;;;;;15.32;87.96;93816.03;5117902;28;20595;-67
2022/09/27 06:39:24;;;;;;;42.05;38.35;;;;;;;15.32;87.85;93802.97;5118422;28;20195;-67
2022/09/27 06:41:56;;;;;;;27.75;25.25;;;;;;;15.31;88.10;93804.13;5118011;28;20192;-67
2022/09/27 06:44:25;;;;;;;27.55;25.05;;;;;;;15.29;88.11;93814.91;5117835;28;20223;-67
2022/09/27 06:46:54;;;;;;;28.10;25.60;;;;;;;15.28;88.26;93818.06;5118599;28;20187;-67
2022/09/27 06:49:24;;;;;;;27.15;24.75;;;;;;;15.27;88.77;93810.94;5117596;28;20211;-67
2022/09/27 06:51:51;;;;;;;26.27;23.98;;;;;;;15.26;88.57;93812.94;5117596;28;20279;-69
2022/09/27 06:54:18;;;;;;;24.98;22.60;;;;;;;15.27;88.74;93786.72;5118548;27;20180;-67
2022/09/27 06:56:49;;;;;;;20.38;18.50;;;;;;;15.28;88.47;93796.63;5118743;28;20184;-70
2022/09/27 07:02:01;;;;;;;16.98;15.38;;;;;;;15.32;88.26;93814.06;5118421;28;20190;-68
2022/09/27 07:04:28;;;;;;;14.55;13.25;;;;;;;15.35;87.95;93818.78;5100398;28;20212;-69
2022/09/27 07:06:55;;;;;;;13.07;11.98;;;;;;;15.36;88.35;93823.16;5118345;28;20199;-69
2022/09/27 07:09:22;;;;;;;12.55;11.27;;;;;;;15.37;88.93;93815.59;5118201;28;20187;-69
2022/09/27 07:11:49;;;;;;;11.77;10.68;;;;;;;15.39;88.31;93821.50;5117155;28;20203;-69
2022/09/27 07:14:16;;;;;;;11.68;10.68;;;;;;;15.39;88.52;93819.53;5116924;28;20191;-69
2022/09/27 07:16:43;;;;;;;12.57;11.38;;;;;;;15.39;88.45;93816.75;5118158;28;20245;-69
2022/09/27 07:19:13;;;;;;;13.18;11.73;;;;;;;15.39;88.60;93836.19;5116912;28;20207;-69
2022/09/27 07:21:40;;;;;;;12.05;11.00;;;;;;;15.38;88.73;93831.84;5118005;28;20278;-68
2022/09/27 07:24:06;;;;;;;14.20;12.95;;;;;;;15.38;88.29;93840.19;5117147;28;20200;-69
2022/09/27 07:26:33;;;;;;;12.98;11.88;;;;;;;15.38;88.74;93840.19;5116609;28;20199;-69
2022/09/27 07:29:00;;;;;;;15.35;13.95;;;;;;;15.39;89.23;93844.53;5117489;28;20509;-69
2022/09/27 07:31:27;;;;;;;15.43;14.13;;;;;;;15.42;89.35;93837.38;5117921;28;20251;-69
2022/09/27 07:33:54;;;;;;;18.38;16.67;;;;;;;15.45;89.48;93832.97;5117364;28;20268;-69
2022/09/27 07:36:22;;;;;;;18.23;16.52;;;;;;;15.47;89.16;93838.88;5116764;28;20199;-69
2022/09/27 07:38:49;;;;;;;15.05;13.63;;;;;;;15.48;89.38;93846.03;5117021;28;20562;-69
2022/09/27 07:41:16;;;;;;;16.38;14.88;;;;;;;15.47;89.22;93833.34;5117649;28;20188;-69
2022/09/27 07:43:44;;;;;;;20.35;18.42;;;;;;;15.50;89.20;93829.72;5116661;28;20202;-69
2022/09/27 07:46:12;;;;;;;17.10;15.40;;;;;;;15.52;89.07;93832.91;5116767;28;20241;-69
2022/09/27 07:48:39;;;;;;;20.65;18.65;;;;;;;15.54;89.24;93834.06;5117161;28;20274;-69
2022/09/27 07:51:09;;;;;;;18.92;17.20;;;;;;;15.55;89.13;93830.06;5116541;28;20195;-68
2022/09/27 07:53:39;;;;;;;19.02;17.05;;;;;;;15.54;89.66;93830.47;5117315;28;20212;-68
2022/09/27 07:56:06;;;;;;;15.18;13.68;;;;;;;15.57;89.37;93832.44;5117316;28;20207;-68
2022/09/27 07:58:33;;;;;;;14.02;12.77;;;;;;;15.57;89.07;93824.09;5116400;28;20206;-69
2022/09/27 08:01:01;;;;;;;15.70;14.30;;;;;;;15.55;89.39;93841.19;5116839;28;20187;-69
2022/09/27 08:03:28;;;;;;;14.10;12.90;;;;;;;15.54;89.37;93827.69;5099517;28;20199;-69
2022/09/27 08:05:54;;;;;;;14.68;13.27;;;;;;;15.55;89.31;93838.41;5117054;28;20207;-69
2022/09/27 08:08:21;;;;;;;13.18;11.93;;;;;;;15.54;89.61;93834.06;5117202;28;20184;-69
2022/09/27 08:10:49;;;;;;;13.27;12.07;;;;;;;15.56;89.72;93825.31;5116258;28;20198;-69
2022/09/27 08:13:18;;;;;;;12.88;11.68;;;;;;;15.56;89.52;93811.41;5116046;28;20215;-69
2022/09/27 08:15:47;;;;;;;35.72;32.08;;;;;;;15.56;89.94;93811.41;5115761;28;20256;-69
2022/09/27 08:18:14;;;;;;;25.63;23.13;;;;;;;15.55;89.80;93799.50;5116121;28;20203;-69
2022/09/27 08:20:41;;;;;;;22.35;20.35;;;;;;;15.55;89.78;93804.28;5116107;28;20547;-69
2022/09/27 08:23:07;;;;;;;21.48;19.48;;;;;;;15.59;90.07;93796.69;5115911;28;20192;-69
2022/09/27 08:25:35;;;;;;;16.13;14.60;;;;;;;15.61;90.45;93802.59;5115879;28;20196;-69
2022/09/27 08:28:04;;;;;;;16.38;14.93;;;;;;;15.61;90.66;93805.38;5116732;28;20271;-69
2022/09/27 08:30:31;;;;;;;16.15;14.55;;;;;;;15.64;90.08;93805.34;5114842;28;20234;-69
2022/09/27 08:32:59;;;;;;;15.32;13.73;;;;;;;15.65;90.28;93800.59;5116525;28;20210;-69
2022/09/27 08:35:27;;;;;;;15.93;14.43;;;;;;;15.70;90.48;93782.69;5115774;28;20534;-69
2022/09/27 08:37:55;;;;;;;15.48;14.13;;;;;;;15.77;90.33;93785.38;5116018;28;20198;-70
2022/09/27 08:40:26;;;;;;;15.40;14.00;;;;;;;15.90;91.58;93789.16;5116404;28;20540;-70
2022/09/27 08:43:00;;;;;;;14.15;12.68;;;;;;;16.07;94.39;93799.25;5116465;28;20188;-70
2022/09/27 08:45:32;;;;;;;14.23;12.85;;;;;;;16.16;94.30;93798.75;5116435;28;20176;-70
2022/09/27 08:48:00;;;;;;;14.35;13.02;;;;;;;16.24;94.30;93786.28;5115571;28;20191;-70
2022/09/27 08:50:29;;;;;;;13.25;12.00;;;;;;;16.31;95.22;93780.63;5115952;28;20214;-70
2022/09/27 08:53:00;;;;;;;13.20;12.00;;;;;;;16.37;95.13;93792.06;5115007;28;20692;-69
2022/09/27 08:55:31;;;;;;;13.00;11.70;;;;;;;16.40;94.90;93790.44;5115680;28;20195;-69
2022/09/27 08:57:59;;;;;;;12.52;11.23;;;;;;;16.54;94.62;93790.22;5116248;28;20199;-69
2022/09/27 09:00:29;;;;;;;12.57;11.25;;;;;;;16.76;96.95;93785.88;5115280;28;20195;-69
2022/09/27 09:02:57;;;;;;;13.10;11.52;;;;;;;16.81;95.16;93781.81;5115802;28;20203;-69
2022/09/27 09:05:29;;;;;;;12.68;11.55;;;;;;;16.78;93.44;93780.69;5097989;28;20207;-69
2022/09/27 09:08:20;;;;;;;12.60;11.40;;;;;;;16.77;93.28;93781.88;5115817;28;20226;-69
2022/09/27 09:13:53;;;;;;;13.68;12.27;;;;;;;16.78;92.54;93777.91;5115546;28;20284;-68
2022/09/27 09:16:31;;;;;;;13.00;11.80;;;;;;;16.83;92.36;93785.75;5114978;28;20206;-68
2022/09/27 09:19:11;;;;;;;13.57;12.38;;;;;;;16.88;92.63;93786.50;5115766;28;20195;-68
2022/09/27 09:21:47;;;;;;;15.13;13.82;;;;;;;16.86;91.75;93781.34;5115868;28;20194;-68
2022/09/27 09:24:26;;;;;;;15.27;13.95;;;;;;;16.84;91.83;93773.41;5115216;28;20192;-68
2022/09/27 09:26:59;;;;;;;17.50;15.90;;;;;;;16.84;91.58;93773.41;5114775;28;20195;-68
2022/09/27 09:29:49;;;;;;;16.00;14.50;;;;;;;16.88;91.81;93758.63;5115061;28;20196;-68
2022/09/27 09:32:27;;;;;;;13.52;12.23;;;;;;;17.01;92.18;93759.59;5115832;28;20187;-68
2022/09/27 09:34:57;;;;;;;14.23;12.93;;;;;;;17.12;92.10;93753.84;5114834;28;20206;-68
2022/09/27 09:37:35;;;;;;;14.30;13.00;;;;;;;17.26;92.04;93742.41;5115024;28;20200;-68
2022/09/27 09:40:07;;;;;;;12.77;11.55;;;;;;;17.41;92.78;93740.13;5114789;28;20595;-68
2022/09/27 09:42:37;;;;;;;16.48;14.98;;;;;;;17.54;91.86;93750.22;5117038;28;20196;-68
2022/09/27 09:45:06;;;;;;;17.75;16.15;;;;;;;17.67;91.65;93771.84;5119003;28;20203;-68
2022/09/27 09:47:37;;;;;;;19.80;17.80;;;;;;;17.67;89.92;93767.06;5118823;28;20199;-68
2022/09/27 09:50:06;;;;;;;22.77;20.63;;;;;;;17.66;90.20;93768.28;5119583;28;20221;-68
2022/09/27 09:52:40;;;;;;;15.98;14.48;;;;;;;17.65;89.59;93763.16;5119517;28;20218;-68
2022/09/27 09:55:16;;;;;;;11.00;10.00;;;;;;;17.59;87.94;93748.13;5119607;28;20195;-68
2022/09/27 09:57:59;;;;;;;8.82;7.93;;;;;;;17.57;85.68;93759.69;5118827;28;20535;-68
2022/09/27 10:00:26;;;;;;;11.95;10.95;;;;;;;17.55;84.93;93773.28;5119783;28;20180;-68
2022/09/27 10:02:55;;;;;;;12.90;11.70;;;;;;;17.55;80.58;93762.94;5119187;28;20180;-68
2022/09/27 10:05:24;;;;;;;15.10;13.75;;;;;;;17.56;82.06;93763.72;5119542;28;20192;-68
2022/09/27 10:07:53;;;;;;;14.63;12.13;;;;;;;17.60;80.45;93742.13;5118736;28;20192;-68
2022/09/27 10:10:20;;;;;;;14.80;13.00;;;;;;;17.71;78.94;93744.69;5119325;28;20188;-68
2022/09/27 10:12:48;;;;;;;14.80;13.30;;;;;;;17.71;79.31;93739.88;5117907;28;20214;-68
2022/09/27 10:15:18;;;;;;;16.27;14.77;;;;;;;17.74;80.79;93733.47;5119280;28;20195;-68
2022/09/27 10:17:48;;;;;;;16.90;15.20;;;;;;;17.77;80.20;93731.84;5119385;28;20192;-68
2022/09/27 10:20:25;;;;;;;16.08;14.68;;;;;;;17.82;79.60;93731.31;5119193;28;20203;-68
2022/09/27 10:22:55;;;;;;;24.83;22.63;;;;;;;17.85;78.83;93729.69;5117954;28;20250;-68
2022/09/27 10:25:22;;;;;;;19.92;18.33;;;;;;;17.85;79.08;93735.25;5119470;28;20192;-68
2022/09/27 10:27:52;;;;;;;19.95;18.15;;;;;;;17.91;79.79;93731.53;5119395;28;20176;-68
2022/09/27 10:30:25;;;;;;;16.67;15.27;;;;;;;17.96;79.58;93727.44;5119156;28;20231;-68
2022/09/27 10:32:55;;;;;;;13.75;12.52;;;;;;;17.93;83.36;93737.44;5117984;28;20191;-68
2022/09/27 10:35:35;;;;;;;13.63;12.27;;;;;;;17.92;82.57;93721.94;5118001;28;20200;-68
2022/09/27 10:38:21;;;;;;;12.55;11.45;;;;;;;18.01;83.00;93736.09;5118639;28;20188;-68
2022/09/27 10:40:48;;;;;;;12.15;11.15;;;;;;;18.12;80.67;93721.09;5118070;28;20183;-68
2022/09/27 10:43:26;;;;;;;12.45;11.25;;;;;;;18.35;81.77;93717.38;5118048;28;20623;-68
2022/09/27 10:46:00;;;;;;;11.05;10.05;;;;;;;18.57;81.67;93720.44;5118112;28;20191;-68
2022/09/27 10:48:27;;;;;;;10.25;9.25;;;;;;;18.70;80.35;93710.09;5118683;28;20214;-68
2022/09/27 10:51:01;;;;;;;11.70;10.48;;;;;;;18.69;78.09;93719.72;5117582;28;20539;-68
2022/09/27 10:53:28;;;;;;;9.93;9.02;;;;;;;18.68;77.42;93701.41;5100477;28;20207;-68
2022/09/27 10:55:56;;;;;;;10.25;9.38;;;;;;;18.73;77.13;93692.50;5118390;28;20196;-68
2022/09/27 10:58:26;;;;;;;10.65;9.75;;;;;;;18.86;79.37;93679.41;5117858;28;20206;-68
2022/09/27 11:01:02;;;;;;;9.32;8.43;;;;;;;18.84;74.97;93683.84;5118282;28;20190;-68
2022/09/27 11:03:29;;;;;;;11.80;9.48;;;;;;;18.78;76.66;93680.81;5117536;28;20509;-68
2022/09/27 11:05:58;;;;;;;8.88;8.07;;;;;;;18.73;75.16;93676.53;5117580;28;20203;-68
2022/09/27 11:08:31;;;;;;;9.07;8.27;;;;;;;18.95;78.76;93681.56;5117139;28;20286;-68
2022/09/27 11:11:06;;;;;;;8.63;7.85;;;;;;;19.10;76.43;93671.56;5117181;28;20206;-69
2022/09/27 11:13:34;;;;;;;8.55;7.85;;;;;;;19.23;74.96;93675.19;5117961;28;20317;-69
2022/09/27 11:16:27;;;;;;;9.63;8.68;;;;;;;19.33;76.27;93676.13;5117038;28;20192;-69
2022/09/27 11:19:02;;;;;;;8.73;7.82;;;;;;;19.29;75.50;93671.84;5117604;28;20188;-69
2022/09/27 11:21:40;;;;;;;9.35;8.45;;;;;;;19.24;75.42;93678.75;5117592;28;20605;-69
2022/09/27 11:24:23;;;;;;;7.75;7.15;;;;;;;19.16;74.26;93663.41;5117763;28;20241;-69
2022/09/27 11:26:59;;;;;;;9.60;8.73;;;;;;;19.13;76.59;93676.25;5116844;28;20192;-69
2022/09/27 11:29:30;;;;;;;7.90;7.22;;;;;;;19.09;73.50;93633.66;5117838;28;20194;-69
2022/09/27 11:32:10;;;;;;;7.20;6.60;;;;;;;19.17;73.87;93637.03;5117395;28;20220;-69
2022/09/27 11:34:46;;;;;;;7.60;7.00;;;;;;;19.35;72.92;93631.72;5116779;28;20599;-68
2022/09/27 11:37:19;;;;;;;7.15;6.55;;;;;;;19.40;71.79;93622.78;5116612;28;20192;-68
2022/09/27 11:40:00;;;;;;;8.52;7.63;;;;;;;19.49;76.25;93622.91;5117834;28;20195;-69
2022/09/27 11:42:55;;;;;;;9.68;8.70;;;;;;;19.79;76.29;93631.22;5116521;28;20209;-69
2022/09/27 11:45:29;;;;;;;8.40;7.60;;;;;;;19.92;74.24;93607.63;5116901;28;20593;-69